Terminal Aerodrome Forecast
Issued by NWS

Home | Current Version | Previous Version | Text Only | Print | Product List | Glossary On
Versions: 1 2 3 4 5 6 7 8 9 10 11 12 13 14 15 16 17 18 19 20 21
229
FTAK31 PAJN 130520
TAFAYA
TAF
PAYA 130520Z 1306/1406 17011G20KT 6SM -SHRA BR SCT015 BKN025 OVC035
      WS020/18025KT
     FM130900 VRB06KT 6SM -SHRA BR BKN015 OVC025
     FM131800 07005KT P6SM -SHRA FEW010 BKN015 OVC025
      AMD LTD TO CLD VIS AND WIND 1306/1309=

USA.gov is the U.S. government's official web portal to all federal, state and local government web resources and services.